Time;durP1;ratioP1;P1;durP2;ratioP2;P2;SDS_P1;SDS_P2;PMS_P1;PMS_P2;Temp;Humidity;BMP_temperature;BMP_pressure;BME280_temperature;BME280_humidity;BME280_pressure;Samples;Min_cycle;Max_cycle;Signal;HPM_P1;HPM_P2
2023/01/27 00:00:52;;;;;;;;;;;;;;;9.40;42.12;99582.28;4477374;32;33348;-62
2023/01/27 00:03:20;;;;;;;;;;;;;;;9.48;41.90;99578.09;4471066;31;34193;-61
2023/01/27 00:05:47;;;;;;;;;;;;;;;9.43;41.37;99574.91;4473172;32;35377;-63
2023/01/27 00:08:14;;;;;;;;;;;;;;;9.37;41.64;99570.00;4471440;31;34795;-63
2023/01/27 00:10:42;;;;;;;;;;;;;;;9.10;42.81;99570.19;4471267;32;34204;-62
2023/01/27 00:13:26;;;;;;;;;;;;;;;9.02;43.22;99573.41;4477100;32;35169;-62
2023/01/27 00:15:54;;;;;;;;;;;;;;;9.06;42.84;99568.69;4478290;32;32154;-61
2023/01/27 00:18:22;;;;;;;;;;;;;;;9.13;42.75;99569.97;4479108;32;34243;-63
2023/01/27 00:26:22;;;;;;;;;;;;;;;9.13;43.05;99561.94;4468811;32;34896;-61
2023/01/27 00:28:49;;;;;;;;;;;;;;;9.14;42.94;99563.66;4476584;32;34502;-63
2023/01/27 00:34:09;;;;;;;;;;;;;;;9.23;42.47;99557.66;4472742;32;33655;-62
2023/01/27 00:36:40;;;;;;;;;;;;;;;9.08;42.76;99558.75;4482890;32;34463;-63
2023/01/27 00:39:09;;;;;;;;;;;;;;;8.99;43.34;99559.41;4476584;31;33983;-63
2023/01/27 00:41:36;;;;;;;;;;;;;;;8.96;42.87;99559.66;4470929;31;31910;-62
2023/01/27 00:44:11;;;;;;;;;;;;;;;9.22;42.50;99561.28;4479103;32;34568;-62
2023/01/27 00:46:39;;;;;;;;;;;;;;;9.50;41.32;99565.50;4471176;32;35758;-62
2023/01/27 00:49:08;;;;;;;;;;;;;;;9.35;42.57;99563.09;4469822;32;36169;-62
2023/01/27 00:51:35;;;;;;;;;;;;;;;9.18;42.88;99564.28;4474134;31;33651;-63
2023/01/27 00:54:03;;;;;;;;;;;;;;;9.19;42.76;99566.00;4477060;31;33938;-62
2023/01/27 00:56:31;;;;;;;;;;;;;;;9.13;43.13;99563.78;4484394;32;33474;-62
2023/01/27 00:58:58;;;;;;;;;;;;;;;9.14;43.19;99568.16;4475517;32;34588;-62
2023/01/27 01:01:26;;;;;;;;;;;;;;;9.40;41.92;99564.44;4474017;32;34677;-63
2023/01/27 01:03:53;;;;;;;;;;;;;;;9.32;41.82;99566.81;4477829;32;33903;-62
2023/01/27 01:06:20;;;;;;;;;;;;;;;9.10;43.15;99563.03;4483674;32;34164;-62
2023/01/27 01:08:48;;;;;;;;;;;;;;;9.39;41.54;99560.06;4470479;31;34558;-62
2023/01/27 01:11:16;;;;;;;;;;;;;;;8.98;42.53;99561.22;4470635;32;33649;-63
2023/01/27 01:13:43;;;;;;;;;;;;;;;9.16;42.50;99568.91;4475255;32;34171;-64
2023/01/27 01:16:18;;;;;;;;;;;;;;;9.13;42.45;99564.63;4477996;31;32979;-62
2023/01/27 01:18:46;;;;;;;;;;;;;;;9.13;42.83;99559.28;4468995;31;34373;-62
2023/01/27 01:21:13;;;;;;;;;;;;;;;9.40;41.79;99563.59;4478015;32;33680;-64
2023/01/27 01:23:41;;;;;;;;;;;;;;;9.22;42.11;99560.44;4480531;32;35030;-62
2023/01/27 01:26:09;;;;;;;;;;;;;;;9.28;42.46;99555.50;4475156;32;34424;-62
2023/01/27 01:28:37;;;;;;;;;;;;;;;8.92;43.48;99560.81;4473580;31;34507;-63
2023/01/27 01:31:06;;;;;;;;;;;;;;;9.02;42.64;99557.41;4481882;32;33723;-62
2023/01/27 01:33:34;;;;;;;;;;;;;;;8.97;42.81;99554.19;4477398;31;35289;-63
2023/01/27 01:36:02;;;;;;;;;;;;;;;9.28;42.32;99546.66;4483052;32;34085;-64
2023/01/27 01:38:30;;;;;;;;;;;;;;;9.20;42.20;99546.34;4481678;32;35500;-62
2023/01/27 01:40:57;;;;;;;;;;;;;;;8.98;42.89;99545.19;4470582;32;34655;-62
2023/01/27 01:43:26;;;;;;;;;;;;;;;8.63;43.84;99543.25;4470649;32;35299;-62
2023/01/27 01:45:55;;;;;;;;;;;;;;;9.16;42.23;99552.88;4468831;32;35069;-62
2023/01/27 01:48:35;;;;;;;;;;;;;;;8.99;42.62;99549.59;4470407;32;34402;-63
2023/01/27 01:51:08;;;;;;;;;;;;;;;9.25;42.30;99552.22;4475968;32;33096;-63
2023/01/27 01:53:41;;;;;;;;;;;;;;;9.18;42.77;99557.16;4474797;32;35106;-62
2023/01/27 01:56:12;;;;;;;;;;;;;;;9.00;43.38;99555.78;4475174;32;35399;-62
2023/01/27 01:58:40;;;;;;;;;;;;;;;8.91;43.19;99554.62;4464321;32;34199;-62
2023/01/27 02:01:12;;;;;;;;;;;;;;;9.15;42.71;99556.50;4479827;32;33722;-63
2023/01/27 02:03:40;;;;;;;;;;;;;;;9.21;42.51;99548.91;4468595;32;34018;-63
2023/01/27 02:06:08;;;;;;;;;;;;;;;9.13;43.39;99545.94;4475033;32;34652;-62
2023/01/27 02:08:39;;;;;;;;;;;;;;;9.01;43.20;99542.31;4470427;32;34587;-62
2023/01/27 02:11:07;;;;;;;;;;;;;;;9.19;42.73;99540.16;4474074;32;34696;-64
2023/01/27 02:13:37;;;;;;;;;;;;;;;9.36;42.26;99540.75;4474783;32;34438;-63
2023/01/27 02:16:06;;;;;;;;;;;;;;;9.19;42.78;99531.28;4455782;32;34254;-62
2023/01/27 02:18:33;;;;;;;;;;;;;;;9.25;42.42;99528.19;4480308;32;35462;-62
2023/01/27 02:21:01;;;;;;;;;;;;;;;9.20;42.58;99522.31;4474242;32;33372;-64
2023/01/27 02:23:38;;;;;;;;;;;;;;;9.13;42.78;99524.56;4480134;32;34334;-64
2023/01/27 02:26:37;;;;;;;;;;;;;;;9.06;42.99;99515.31;4476254;32;34159;-64
2023/01/27 02:29:06;;;;;;;;;;;;;;;9.36;42.12;99511.38;4434770;32;34335;-63
2023/01/27 02:31:33;;;;;;;;;;;;;;;9.13;42.84;99519.22;4470488;32;33352;-63
2023/01/27 02:34:14;;;;;;;;;;;;;;;9.22;42.93;99507.03;4477643;32;32397;-62
2023/01/27 02:36:43;;;;;;;;;;;;;;;9.37;42.05;99502.38;4475939;32;33744;-62
2023/01/27 02:39:11;;;;;;;;;;;;;;;9.02;43.12;99501.34;4467088;32;34257;-63
2023/01/27 02:41:39;;;;;;;;;;;;;;;8.93;43.41;99499.31;4459058;32;34358;-61
2023/01/27 02:44:08;;;;;;;;;;;;;;;9.01;43.57;99494.25;4476846;31;33992;-63
2023/01/27 02:46:36;;;;;;;;;;;;;;;9.04;43.34;99490.53;4484520;32;34188;-65
2023/01/27 02:49:03;;;;;;;;;;;;;;;9.07;42.60;99484.97;4476824;32;34253;-64
2023/01/27 02:51:31;;;;;;;;;;;;;;;8.68;43.59;99486.88;4477182;32;34205;-62
2023/01/27 02:53:58;;;;;;;;;;;;;;;8.70;43.28;99484.06;4473089;31;34171;-64
2023/01/27 02:56:26;;;;;;;;;;;;;;;8.86;42.75;99485.56;4477912;32;33035;-64
2023/01/27 02:58:55;;;;;;;;;;;;;;;8.69;42.74;99485.06;4481447;31;34920;-65
2023/01/27 03:01:23;;;;;;;;;;;;;;;8.81;42.43;99481.50;4474020;32;33705;-64
2023/01/27 03:03:51;;;;;;;;;;;;;;;8.84;42.37;99479.47;4477705;32;33756;-65
2023/01/27 03:06:18;;;;;;;;;;;;;;;8.70;42.02;99484.97;4478502;31;32564;-63
2023/01/27 03:08:46;;;;;;;;;;;;;;;8.79;42.02;99480.75;4475331;32;34412;-65
2023/01/27 03:12:18;;;;;;;;;;;;;;;8.75;42.03;99482.78;4470903;32;33513;-64
2023/01/27 03:14:02;;;;;;;;;;;;;;;8.74;41.86;99474.91;4472553;32;35073;-64
2023/01/27 03:19:15;;;;;;;;;;;;;;;8.89;41.25;99473.78;4470257;32;33353;-65
2023/01/27 03:21:44;;;;;;;;;;;;;;;8.77;40.82;99469.38;4478919;32;33272;-63
2023/01/27 03:24:11;;;;;;;;;;;;;;;8.86;40.31;99461.53;4467150;32;33779;-65
2023/01/27 03:26:39;;;;;;;;;;;;;;;8.91;40.14;99466.53;4472759;31;34792;-64
2023/01/27 03:31:53;;;;;;;;;;;;;;;8.80;40.22;99461.13;4471176;32;33692;-63
2023/01/27 03:34:20;;;;;;;;;;;;;;;8.80;40.23;99453.97;4469066;31;34092;-63
2023/01/27 03:47:52;;;;;;;;;;;;;;;8.72;40.16;99448.31;4474709;31;33719;-63
2023/01/27 03:50:36;;;;;;;;;;;;;;;8.72;40.28;99439.47;4473801;32;33779;-61
2023/01/27 03:53:04;;;;;;;;;;;;;;;8.85;39.89;99446.47;4466432;32;33644;-62
2023/01/27 03:55:32;;;;;;;;;;;;;;;8.73;40.18;99443.84;4477529;31;34024;-63
2023/01/27 03:58:17;;;;;;;;;;;;;;;8.76;40.24;99438.28;4467233;32;35405;-62
2023/01/27 04:00:45;;;;;;;;;;;;;;;8.79;40.21;99436.25;4467831;32;34571;-66
2023/01/27 04:08:48;;;;;;;;;;;;;;;8.59;41.31;99420.81;4479286;32;35486;-61
2023/01/27 04:14:05;;;;;;;;;;;;;;;8.40;41.98;99426.62;4472880;32;34223;-62
2023/01/27 04:16:33;;;;;;;;;;;;;;;8.31;41.69;99425.41;4468811;32;33832;-61
2023/01/27 04:19:00;;;;;;;;;;;;;;;8.64;40.32;99426.69;4465199;32;34284;-61
2023/01/27 04:21:28;;;;;;;;;;;;;;;8.79;40.38;99425.56;4466711;32;34538;-61
2023/01/27 04:23:55;;;;;;;;;;;;;;;8.56;40.65;99421.87;4478711;32;33530;-62
2023/01/27 04:26:22;;;;;;;;;;;;;;;8.70;40.23;99426.25;4464785;31;32614;-62
2023/01/27 04:28:49;;;;;;;;;;;;;;;8.55;40.49;99424.69;4473791;32;33872;-61
2023/01/27 04:31:17;;;;;;;;;;;;;;;8.75;40.09;99425.91;4466207;32;34285;-61
2023/01/27 04:33:44;;;;;;;;;;;;;;;8.77;40.36;99422.19;4481060;31;33434;-62
2023/01/27 04:36:12;;;;;;;;;;;;;;;8.88;39.85;99425.88;4462915;32;34707;-62
2023/01/27 04:38:40;;;;;;;;;;;;;;;8.84;39.87;99427.91;4465495;32;35482;-61
2023/01/27 04:41:07;;;;;;;;;;;;;;;8.69;40.54;99419.19;4475004;32;34292;-62
2023/01/27 04:43:34;;;;;;;;;;;;;;;8.71;40.16;99424.44;4474117;31;33233;-62
2023/01/27 04:46:02;;;;;;;;;;;;;;;8.82;39.49;99424.50;4478025;31;33355;-63
2023/01/27 04:48:29;;;;;;;;;;;;;;;8.25;39.98;99425.00;4467416;32;34647;-63
2023/01/27 04:50:56;;;;;;;;;;;;;;;8.58;39.17;99425.31;4478353;32;35191;-63
2023/01/27 04:53:24;;;;;;;;;;;;;;;8.50;40.11;99433.00;4474182;31;33989;-64
2023/01/27 04:55:51;;;;;;;;;;;;;;;8.77;39.39;99432.00;4473896;32;33941;-64
2023/01/27 04:58:18;;;;;;;;;;;;;;;8.92;38.85;99440.69;4476952;32;34457;-65
2023/01/27 05:00:45;;;;;;;;;;;;;;;8.71;39.20;99437.78;4470075;32;34400;-66
2023/01/27 05:03:13;;;;;;;;;;;;;;;8.62;39.43;99447.28;4478050;32;33879;-63
2023/01/27 05:05:40;;;;;;;;;;;;;;;8.69;39.32;99443.22;4479365;32;34894;-64
2023/01/27 05:08:08;;;;;;;;;;;;;;;8.84;38.93;99443.94;4467770;32;34386;-65
2023/01/27 05:10:36;;;;;;;;;;;;;;;8.96;37.76;99444.87;4449777;32;34377;-64
2023/01/27 05:13:03;;;;;;;;;;;;;;;8.89;38.30;99444.44;4477214;31;33469;-64
2023/01/27 05:15:30;;;;;;;;;;;;;;;9.04;37.86;99440.66;4473353;32;34797;-65
2023/01/27 05:17:58;;;;;;;;;;;;;;;9.01;37.99;99448.88;4465579;32;34205;-63
2023/01/27 05:20:25;;;;;;;;;;;;;;;8.81;39.13;99449.50;4469281;31;34068;-63
2023/01/27 05:23:33;;;;;;;;;;;;;;;8.66;39.30;99442.56;4475935;31;33733;-65
2023/01/27 05:25:40;;;;;;;;;;;;;;;8.67;39.25;99438.94;4478286;32;34169;-64
2023/01/27 05:28:08;;;;;;;;;;;;;;;8.49;39.31;99441.97;4471456;32;33123;-63
2023/01/27 05:30:35;;;;;;;;;;;;;;;8.40;39.83;99442.63;4470311;31;34735;-61
2023/01/27 05:33:02;;;;;;;;;;;;;;;8.40;39.89;99446.13;4476591;31;33901;-62
2023/01/27 05:35:33;;;;;;;;;;;;;;;8.33;39.38;99434.16;4467999;32;34146;-62
2023/01/27 05:38:00;;;;;;;;;;;;;;;8.30;39.46;99437.03;4472004;31;33317;-62
2023/01/27 05:40:27;;;;;;;;;;;;;;;8.08;40.09;99435.03;4472043;32;35235;-62
2023/01/27 05:42:55;;;;;;;;;;;;;;;7.94;39.92;99440.47;4481265;31;33270;-62
2023/01/27 05:45:22;;;;;;;;;;;;;;;7.99;39.62;99437.47;4477242;32;34384;-65
2023/01/27 05:47:50;;;;;;;;;;;;;;;7.78;40.31;99439.81;4468720;31;35332;-62
2023/01/27 05:50:17;;;;;;;;;;;;;;;7.55;40.68;99444.03;4477378;31;34825;-64
2023/01/27 05:52:44;;;;;;;;;;;;;;;7.64;40.58;99444.28;4479476;32;33548;-62
2023/01/27 05:55:12;;;;;;;;;;;;;;;7.63;40.63;99447.88;4469530;32;34067;-64
2023/01/27 05:57:40;;;;;;;;;;;;;;;7.46;40.95;99448.16;4468317;32;35002;-63
2023/01/27 06:00:07;;;;;;;;;;;;;;;7.37;41.35;99452.28;4464175;32;35520;-67
2023/01/27 06:02:34;;;;;;;;;;;;;;;7.52;40.94;99450.41;4477346;31;33170;-63
2023/01/27 06:05:02;;;;;;;;;;;;;;;7.59;41.12;99453.50;4469878;32;33746;-64
2023/01/27 06:07:29;;;;;;;;;;;;;;;7.40;41.21;99454.72;4472484;32;33949;-64
2023/01/27 06:09:56;;;;;;;;;;;;;;;7.43;40.99;99451.03;4468748;32;35067;-66
2023/01/27 06:12:24;;;;;;;;;;;;;;;7.40;40.91;99456.56;4465932;32;33195;-64
2023/01/27 06:14:51;;;;;;;;;;;;;;;7.53;40.84;99453.94;4471676;31;33840;-64
2023/01/27 06:17:18;;;;;;;;;;;;;;;7.55;40.49;99452.87;4476134;31;34360;-64
2023/01/27 06:19:45;;;;;;;;;;;;;;;6.54;42.38;99449.63;4469159;32;34642;-63
2023/01/27 06:22:12;;;;;;;;;;;;;;;6.92;43.34;99449.00;4474557;31;33692;-62
2023/01/27 06:24:40;;;;;;;;;;;;;;;6.97;44.04;99446.06;4472862;32;35237;-62
2023/01/27 06:27:07;;;;;;;;;;;;;;;7.46;41.97;99440.16;4475358;32;34243;-62
2023/01/27 06:29:35;;;;;;;;;;;;;;;7.51;41.24;99443.34;4466852;32;34377;-62
2023/01/27 06:32:02;;;;;;;;;;;;;;;7.04;42.42;99450.03;4471975;31;34526;-64
2023/01/27 06:34:29;;;;;;;;;;;;;;;7.54;41.37;99442.31;4472938;32;34432;-64
2023/01/27 06:36:57;;;;;;;;;;;;;;;7.67;41.27;99452.06;4477830;31;33994;-62
2023/01/27 06:39:24;;;;;;;;;;;;;;;7.76;40.74;99445.22;4480756;31;35604;-64
2023/01/27 06:41:51;;;;;;;;;;;;;;;8.12;40.02;99444.53;4476717;32;33307;-64
2023/01/27 06:44:18;;;;;;;;;;;;;;;7.95;39.54;99447.50;4478282;32;34079;-65
2023/01/27 06:46:46;;;;;;;;;;;;;;;8.08;39.96;99447.50;4473108;32;34414;-65
2023/01/27 06:49:14;;;;;;;;;;;;;;;8.34;38.97;99448.34;4478405;31;35386;-64
2023/01/27 06:51:41;;;;;;;;;;;;;;;8.00;40.77;99442.72;4474927;32;33474;-66
2023/01/27 06:54:08;;;;;;;;;;;;;;;8.27;40.02;99447.06;4472956;32;34012;-64
2023/01/27 06:56:36;;;;;;;;;;;;;;;8.47;38.39;99449.22;4467412;32;33763;-66
2023/01/27 06:59:03;;;;;;;;;;;;;;;8.05;40.29;99453.88;4474134;32;34492;-64
2023/01/27 07:01:31;;;;;;;;;;;;;;;8.40;38.58;99447.94;4467289;32;33903;-64
2023/01/27 07:03:59;;;;;;;;;;;;;;;8.35;38.89;99455.41;4481007;32;34075;-64
2023/01/27 07:06:26;;;;;;;;;;;;;;;8.24;39.00;99450.81;4478252;32;34543;-64
2023/01/27 07:08:53;;;;;;;;;;;;;;;8.02;39.10;99456.75;4479973;32;34755;-65
2023/01/27 07:11:22;;;;;;;;;;;;;;;7.79;40.11;99450.34;4472946;31;33554;-64
2023/01/27 07:13:50;;;;;;;;;;;;;;;8.07;39.36;99448.47;4481787;32;33627;-66
2023/01/27 07:16:17;;;;;;;;;;;;;;;8.23;38.96;99445.59;4479647;32;35086;-64
2023/01/27 07:18:44;;;;;;;;;;;;;;;8.29;38.65;99451.34;4470720;32;34606;-63
2023/01/27 07:21:12;;;;;;;;;;;;;;;8.32;39.11;99456.47;4468492;32;33431;-64
2023/01/27 07:23:39;;;;;;;;;;;;;;;8.44;38.66;99459.25;4470610;32;34433;-64
2023/01/27 07:26:06;;;;;;;;;;;;;;;8.52;38.32;99447.09;4473458;32;34873;-64
2023/01/27 07:28:50;;;;;;;;;;;;;;;8.65;37.85;99459.56;4483118;32;33781;-66
2023/01/27 07:31:18;;;;;;;;;;;;;;;8.58;38.04;99459.16;4473343;31;32896;-65
2023/01/27 07:33:45;;;;;;;;;;;;;;;8.46;38.20;99462.69;4474033;32;33397;-68
2023/01/27 07:36:12;;;;;;;;;;;;;;;8.54;38.33;99458.50;4472870;32;32643;-64
2023/01/27 07:38:40;;;;;;;;;;;;;;;8.34;39.35;99467.87;4471856;32;34103;-65
2023/01/27 07:41:07;;;;;;;;;;;;;;;8.63;39.04;99465.88;4474514;31;33423;-65
2023/01/27 07:43:34;;;;;;;;;;;;;;;8.53;39.49;99454.13;4477060;32;34127;-66
2023/01/27 07:46:06;;;;;;;;;;;;;;;8.89;38.37;99464.94;4477486;32;34462;-67
2023/01/27 07:48:34;;;;;;;;;;;;;;;8.88;38.33;99456.09;4481226;31;33974;-64
2023/01/27 07:51:01;;;;;;;;;;;;;;;8.88;38.51;99453.41;4478485;32;33623;-66
2023/01/27 07:53:28;;;;;;;;;;;;;;;8.94;38.09;99457.47;4471483;31;34137;-66
2023/01/27 07:55:58;;;;;;;;;;;;;;;8.98;37.49;99446.44;4480456;31;34162;-65
2023/01/27 07:58:25;;;;;;;;;;;;;;;8.79;38.24;99443.41;4470838;32;34382;-67
2023/01/27 08:00:52;;;;;;;;;;;;;;;8.83;38.11;99448.41;4482906;32;33811;-65
2023/01/27 08:03:21;;;;;;;;;;;;;;;9.04;38.34;99443.31;4477932;32;34849;-66
2023/01/27 08:05:49;;;;;;;;;;;;;;;8.86;38.29;99450.03;4469263;32;34374;-66
2023/01/27 08:08:16;;;;;;;;;;;;;;;9.00;38.12;99452.53;4476151;32;34506;-67
2023/01/27 08:10:47;;;;;;;;;;;;;;;9.36;37.15;99453.44;4481888;32;34315;-66
2023/01/27 08:13:15;;;;;;;;;;;;;;;9.37;37.56;99456.97;4467132;31;33336;-65
2023/01/27 08:15:42;;;;;;;;;;;;;;;9.31;38.50;99459.16;4475320;32;34764;-65
2023/01/27 08:18:10;;;;;;;;;;;;;;;9.43;38.08;99459.19;4469692;32;34112;-64
2023/01/27 08:20:37;;;;;;;;;;;;;;;9.51;38.54;99459.47;4471666;32;34146;-66
2023/01/27 08:23:04;;;;;;;;;;;;;;;9.49;38.48;99450.72;4473461;31;34022;-64
2023/01/27 08:25:40;;;;;;;;;;;;;;;9.48;38.61;99454.38;4478338;32;34288;-66
2023/01/27 08:28:08;;;;;;;;;;;;;;;9.65;38.39;99461.09;4479653;32;34105;-66
2023/01/27 08:30:35;;;;;;;;;;;;;;;9.46;39.06;99457.12;4477141;31;33488;-66
2023/01/27 08:33:02;;;;;;;;;;;;;;;9.41;39.40;99462.00;4476610;32;33703;-66
2023/01/27 08:35:30;;;;;;;;;;;;;;;9.57;38.92;99456.34;4466376;32;35174;-65
2023/01/27 08:37:57;;;;;;;;;;;;;;;9.62;38.52;99454.16;4473483;32;35139;-65
2023/01/27 08:40:24;;;;;;;;;;;;;;;9.59;38.92;99458.88;4475088;32;33435;-66
2023/01/27 08:42:52;;;;;;;;;;;;;;;9.56;38.86;99458.13;4474009;32;34399;-65
2023/01/27 08:45:19;;;;;;;;;;;;;;;9.70;38.49;99462.47;4473751;32;34403;-65
2023/01/27 08:47:46;;;;;;;;;;;;;;;9.73;38.01;99461.38;4472143;31;33846;-65
2023/01/27 08:50:14;;;;;;;;;;;;;;;9.84;37.82;99469.44;4479540;31;34565;-66
2023/01/27 08:52:42;;;;;;;;;;;;;;;9.57;38.18;99469.72;4471269;31;33990;-66
2023/01/27 08:55:09;;;;;;;;;;;;;;;9.72;38.02;99465.84;4474980;31;34308;-67
2023/01/27 08:57:36;;;;;;;;;;;;;;;9.81;37.05;99472.34;4476725;32;33931;-68
2023/01/27 09:00:05;;;;;;;;;;;;;;;9.53;37.35;99474.44;4466017;32;34687;-66
2023/01/27 09:02:32;;;;;;;;;;;;;;;9.53;37.29;99473.56;4471092;32;33412;-66
2023/01/27 09:04:59;;;;;;;;;;;;;;;9.66;37.60;99473.50;4467909;32;33934;-67
2023/01/27 09:07:27;;;;;;;;;;;;;;;9.56;37.68;99473.31;4468011;32;35022;-67
2023/01/27 09:09:54;;;;;;;;;;;;;;;9.72;37.56;99478.38;4470296;32;34248;-65
2023/01/27 09:12:39;;;;;;;;;;;;;;;9.71;37.54;99472.19;4480720;31;34029;-67
2023/01/27 09:15:06;;;;;;;;;;;;;;;9.74;37.97;99481.78;4468639;32;35510;-66
2023/01/27 09:17:34;;;;;;;;;;;;;;;9.87;37.72;99489.75;4468787;32;34261;-65
2023/01/27 09:20:01;;;;;;;;;;;;;;;9.88;37.78;99475.37;4453979;32;32799;-66
2023/01/27 09:22:29;;;;;;;;;;;;;;;9.80;38.01;99482.19;4468041;32;32573;-67
2023/01/27 09:24:56;;;;;;;;;;;;;;;9.33;38.65;99491.06;4476230;31;33896;-65
2023/01/27 09:27:23;;;;;;;;;;;;;;;9.71;38.02;99490.03;4468790;32;34318;-64
2023/01/27 09:30:05;;;;;;;;;;;;;;;9.80;37.62;99484.84;4466924;31;33789;-66
2023/01/27 09:32:32;;;;;;;;;;;;;;;9.87;37.65;99492.41;4473081;31;34291;-63
2023/01/27 09:35:00;;;;;;;;;;;;;;;9.40;38.67;99496.81;4474972;32;35479;-64
2023/01/27 09:37:27;;;;;;;;;;;;;;;8.64;37.96;99488.06;4478852;32;34946;-63
2023/01/27 09:39:55;;;;;;;;;;;;;;;8.28;37.73;99489.66;4477392;32;34280;-65
2023/01/27 09:42:30;;;;;;;;;;;;;;;8.21;39.28;99495.50;4459909;32;33931;-65
2023/01/27 09:45:19;;;;;;;;;;;;;;;8.73;38.08;99492.75;4463624;32;35635;-64
2023/01/27 09:47:46;;;;;;;;;;;;;;;8.83;37.18;99495.59;4457863;32;34391;-63
2023/01/27 09:50:16;;;;;;;;;;;;;;;8.49;37.21;99487.31;4471649;32;33782;-64
2023/01/27 09:52:46;;;;;;;;;;;;;;;8.28;38.76;99484.31;4475896;31;33273;-65
2023/01/27 09:55:36;;;;;;;;;;;;;;;8.39;38.23;99489.78;4467746;32;34514;-66
2023/01/27 09:58:26;;;;;;;;;;;;;;;8.12;38.60;99489.84;4471262;32;33596;-66
2023/01/27 10:01:12;;;;;;;;;;;;;;;7.75;40.32;99487.97;4453909;32;34588;-66
2023/01/27 10:04:00;;;;;;;;;;;;;;;7.92;38.95;99493.00;4470039;32;33797;-64
2023/01/27 10:06:46;;;;;;;;;;;;;;;6.89;42.15;99488.25;4438427;31;32887;-63
2023/01/27 10:09:22;;;;;;;;;;;;;;;8.03;39.41;99482.47;4470790;32;33870;-65
2023/01/27 10:12:22;;;;;;;;;;;;;;;7.73;39.57;99487.22;4475276;31;33661;-66
2023/01/27 10:15:08;;;;;;;;;;;;;;;8.15;39.16;99486.09;4430605;32;34053;-64
2023/01/27 10:17:47;;;;;;;;;;;;;;;8.01;39.25;99484.38;4467747;31;34332;-65
2023/01/27 10:20:17;;;;;;;;;;;;;;;7.93;39.72;99476.06;4459632;32;35354;-64
2023/01/27 10:22:44;;;;;;;;;;;;;;;7.51;41.24;99483.31;4470238;32;33619;-66
2023/01/27 10:25:27;;;;;;;;;;;;;;;7.87;40.82;99477.34;4467809;32;34924;-66
2023/01/27 10:27:56;;;;;;;;;;;;;;;7.28;43.37;99483.97;4466442;32;34319;-66
2023/01/27 10:30:24;;;;;;;;;;;;;;;7.61;44.11;99479.09;4469013;31;35481;-63
2023/01/27 10:32:51;;;;;;;;;;;;;;;7.70;41.71;99485.59;4474125;32;33266;-65
2023/01/27 10:35:19;;;;;;;;;;;;;;;8.08;41.25;99484.81;4468567;32;35332;-66
2023/01/27 10:37:56;;;;;;;;;;;;;;;8.23;42.09;99480.25;4478196;32;34331;-67
2023/01/27 10:40:24;;;;;;;;;;;;;;;8.61;40.86;99482.94;4477833;32;34626;-64
2023/01/27 10:43:10;;;;;;;;;;;;;;;8.37;41.80;99480.97;4470189;32;33751;-65
2023/01/27 10:45:38;;;;;;;;;;;;;;;8.35;42.79;99482.06;4477865;31;35258;-65
2023/01/27 10:48:21;;;;;;;;;;;;;;;7.82;45.62;99487.44;4476064;32;32852;-66
2023/01/27 10:50:54;;;;;;;;;;;;;;;8.60;42.36;99474.09;4469234;32;35520;-65
2023/01/27 10:53:21;;;;;;;;;;;;;;;8.26;42.85;99472.91;4465287;32;31382;-67
2023/01/27 10:56:00;;;;;;;;;;;;;;;8.54;43.01;99474.53;4475510;32;35400;-67
2023/01/27 10:58:30;;;;;;;;;;;;;;;8.67;42.33;99468.28;4476239;32;35178;-66
2023/01/27 11:00:58;;;;;;;;;;;;;;;8.93;42.42;99466.44;4473832;32;35570;-66
2023/01/27 11:03:57;;;;;;;;;;;;;;;9.30;41.81;99465.44;4475445;32;33721;-67
2023/01/27 11:06:29;;;;;;;;;;;;;;;8.95;43.09;99461.81;4467772;31;33825;-64
2023/01/27 11:09:20;;;;;;;;;;;;;;;8.88;43.29;99457.91;4463435;32;33206;-66
2023/01/27 11:11:50;;;;;;;;;;;;;;;8.83;42.88;99460.91;4466586;32;34707;-65
2023/01/27 11:14:23;;;;;;;;;;;;;;;8.78;43.21;99457.72;4457726;32;34633;-66
2023/01/27 11:16:55;;;;;;;;;;;;;;;9.57;41.80;99456.34;4459079;32;35078;-66
2023/01/27 11:19:43;;;;;;;;;;;;;;;9.28;42.61;99458.53;4473800;32;34538;-66
2023/01/27 11:22:21;;;;;;;;;;;;;;;9.30;42.89;99449.41;4469150;31;32789;-66
2023/01/27 11:24:51;;;;;;;;;;;;;;;9.24;42.63;99449.84;4469655;32;34866;-66
2023/01/27 11:27:32;;;;;;;;;;;;;;;9.53;42.37;99444.16;4455680;32;34005;-68
2023/01/27 11:30:06;;;;;;;;;;;;;;;9.71;41.98;99455.31;4458900;32;34260;-67
2023/01/27 11:32:37;;;;;;;;;;;;;;;9.00;43.76;99454.34;4460484;32;35512;-66
2023/01/27 11:35:07;;;;;;;;;;;;;;;9.26;43.90;99445.28;4473225;31;33563;-66
2023/01/27 11:37:36;;;;;;;;;;;;;;;9.50;43.10;99442.59;4472480;31;34006;-66
2023/01/27 11:40:04;;;;;;;;;;;;;;;9.57;43.22;99440.31;4463041;32;33998;-66
2023/01/27 11:42:33;;;;;;;;;;;;;;;9.79;42.94;99440.41;4462153;32;34975;-66
2023/01/27 11:45:00;;;;;;;;;;;;;;;9.45;44.06;99431.41;4472768;32;32418;-65
2023/01/27 11:47:29;;;;;;;;;;;;;;;9.60;43.89;99428.53;4461037;32;33976;-65
2023/01/27 11:49:56;;;;;;;;;;;;;;;9.87;43.02;99431.78;4454609;32;35317;-66
2023/01/27 11:52:27;;;;;;;;;;;;;;;9.60;43.96;99416.03;4455432;32;33090;-65
2023/01/27 11:54:57;;;;;;;;;;;;;;;9.72;43.35;99422.25;4469653;31;33552;-65
2023/01/27 11:57:26;;;;;;;;;;;;;;;9.43;44.44;99422.63;4456676;32;35295;-64
2023/01/27 12:00:04;;;;;;;;;;;;;;;9.55;43.38;99412.84;4471644;32;34053;-65
2023/01/27 12:02:40;;;;;;;;;;;;;;;9.81;42.43;99405.50;4461239;32;35402;-65
2023/01/27 12:05:15;;;;;;;;;;;;;;;9.29;43.51;99398.78;4455113;32;33799;-63
2023/01/27 12:07:42;;;;;;;;;;;;;;;9.47;44.07;99396.53;4466214;31;34397;-64
2023/01/27 12:10:23;;;;;;;;;;;;;;;9.26;45.74;99399.03;4483806;32;35368;-64
2023/01/27 12:12:52;;;;;;;;;;;;;;;9.08;44.38;99394.09;4474618;31;34482;-64
2023/01/27 12:15:19;;;;;;;;;;;;;;;8.52;45.13;99393.75;4478666;32;34600;-63
2023/01/27 12:17:46;;;;;;;;;;;;;;;8.63;46.12;99396.50;4474232;31;33925;-62
2023/01/27 12:20:22;;;;;;;;;;;;;;;9.18;44.67;99386.25;4469331;31;32601;-63
2023/01/27 12:22:51;;;;;;;;;;;;;;;8.66;46.18;99386.56;4453795;32;33009;-63
2023/01/27 12:25:21;;;;;;;;;;;;;;;8.52;46.01;99385.75;4471302;31;34393;-63
2023/01/27 12:27:52;;;;;;;;;;;;;;;8.71;45.64;99385.25;4454352;32;34032;-63
2023/01/27 12:30:23;;;;;;;;;;;;;;;9.12;44.71;99380.50;4461987;32;35185;-62
2023/01/27 12:32:50;;;;;;;;;;;;;;;9.43;43.84;99371.03;4471319;31;35198;-64
2023/01/27 12:35:32;;;;;;;;;;;;;;;8.88;45.32;99372.50;4470331;32;32997;-64
2023/01/27 12:38:00;;;;;;;;;;;;;;;8.80;44.70;99371.25;4475672;32;35304;-65
2023/01/27 12:40:28;;;;;;;;;;;;;;;8.24;46.27;99364.62;4460918;32;34221;-63
2023/01/27 12:43:01;;;;;;;;;;;;;;;8.95;44.17;99361.25;4479141;31;34192;-65
2023/01/27 12:45:29;;;;;;;;;;;;;;;8.92;45.17;99363.28;4469266;32;33526;-65
2023/01/27 12:48:09;;;;;;;;;;;;;;;8.98;44.18;99365.50;4468438;32;34601;-64
2023/01/27 12:50:37;;;;;;;;;;;;;;;8.63;46.61;99375.16;4475153;32;34469;-63
2023/01/27 12:53:05;;;;;;;;;;;;;;;9.24;43.35;99360.87;4453032;32;35064;-64
2023/01/27 12:55:33;;;;;;;;;;;;;;;9.38;43.13;99362.53;4476434;32;34024;-63
2023/01/27 12:58:01;;;;;;;;;;;;;;;8.69;45.08;99367.66;4469356;31;35297;-63
2023/01/27 13:00:28;;;;;;;;;;;;;;;8.94;43.79;99364.88;4472682;32;35021;-65
2023/01/27 13:02:59;;;;;;;;;;;;;;;8.29;46.05;99363.34;4467760;31;34160;-64
2023/01/27 13:05:27;;;;;;;;;;;;;;;8.02;46.66;99366.16;4458778;32;33753;-65
2023/01/27 13:07:54;;;;;;;;;;;;;;;8.09;47.12;99370.09;4474896;32;35607;-63
2023/01/27 13:10:22;;;;;;;;;;;;;;;7.88;47.90;99371.59;4472291;32;33084;-63
2023/01/27 13:12:49;;;;;;;;;;;;;;;8.53;47.68;99375.91;4472862;32;34366;-64
2023/01/27 13:15:18;;;;;;;;;;;;;;;8.14;47.45;99365.28;4466624;32;33945;-65
2023/01/27 13:17:48;;;;;;;;;;;;;;;7.83;48.32;99376.37;4458646;32;35207;-64
2023/01/27 13:20:36;;;;;;;;;;;;;;;8.54;47.06;99378.50;4469717;32;34455;-63
2023/01/27 13:23:03;;;;;;;;;;;;;;;8.83;46.01;99381.69;4460325;32;34738;-63
2023/01/27 13:25:44;;;;;;;;;;;;;;;9.15;45.70;99383.81;4468005;31;32345;-65
2023/01/27 13:28:16;;;;;;;;;;;;;;;9.16;45.03;99382.84;4460518;32;34129;-64
2023/01/27 13:30:45;;;;;;;;;;;;;;;8.91;45.83;99391.81;4470280;32;34260;-66
2023/01/27 13:33:17;;;;;;;;;;;;;;;9.29;44.97;99391.63;4460250;32;34283;-64
2023/01/27 13:35:49;;;;;;;;;;;;;;;9.22;45.72;99403.75;4455456;32;35378;-64
2023/01/27 13:38:22;;;;;;;;;;;;;;;9.25;45.15;99392.00;4462839;32;32244;-64
2023/01/27 13:40:49;;;;;;;;;;;;;;;9.30;45.25;99387.12;4460249;31;34219;-64
2023/01/27 13:43:22;;;;;;;;;;;;;;;8.72;46.02;99391.44;4464256;32;33898;-64
2023/01/27 13:45:54;;;;;;;;;;;;;;;8.84;47.00;99391.41;4452489;32;33608;-64